sensor_id;sensor_type;location;lat;lon;timestamp;P1;durP1;ratioP1;P2;durP2;ratioP2
39434;SDS011;66825;51.880;-0.518;2023-07-20T00:00:27;0.40;;;0.30;;
39434;SDS011;66825;51.880;-0.518;2023-07-20T00:02:52;0.45;;;0.38;;
39434;SDS011;66825;51.880;-0.518;2023-07-20T00:05:18;0.75;;;0.25;;
39434;SDS011;66825;51.880;-0.518;2023-07-20T00:07:46;0.50;;;0.30;;
39434;SDS011;66825;51.880;-0.518;2023-07-20T00:10:11;0.40;;;0.22;;
39434;SDS011;66825;51.880;-0.518;2023-07-20T00:12:37;0.40;;;0.30;;
39434;SDS011;66825;51.880;-0.518;2023-07-20T00:15:02;0.40;;;0.30;;
39434;SDS011;66825;51.880;-0.518;2023-07-20T00:17:28;0.45;;;0.30;;
39434;SDS011;66825;51.880;-0.518;2023-07-20T00:19:53;0.50;;;0.30;;
39434;SDS011;66825;51.880;-0.518;2023-07-20T00:22:19;0.30;;;0.30;;
39434;SDS011;66825;51.880;-0.518;2023-07-20T00:24:44;0.38;;;0.30;;
39434;SDS011;66825;51.880;-0.518;2023-07-20T00:27:10;0.52;;;0.32;;
39434;SDS011;66825;51.880;-0.518;2023-07-20T00:29:35;0.30;;;0.30;;
39434;SDS011;66825;51.880;-0.518;2023-07-20T00:32:01;0.40;;;0.32;;
39434;SDS011;66825;51.880;-0.518;2023-07-20T00:34:26;0.40;;;0.30;;
39434;SDS011;66825;51.880;-0.518;2023-07-20T00:36:52;0.30;;;0.28;;
39434;SDS011;66825;51.880;-0.518;2023-07-20T00:39:17;0.40;;;0.30;;
39434;SDS011;66825;51.880;-0.518;2023-07-20T00:41:42;0.38;;;0.30;;
39434;SDS011;66825;51.880;-0.518;2023-07-20T00:44:08;0.30;;;0.20;;
39434;SDS011;66825;51.880;-0.518;2023-07-20T00:46:33;0.57;;;0.30;;
39434;SDS011;66825;51.880;-0.518;2023-07-20T00:48:59;0.75;;;0.38;;
39434;SDS011;66825;51.880;-0.518;2023-07-20T00:51:25;0.30;;;0.30;;
39434;SDS011;66825;51.880;-0.518;2023-07-20T00:53:51;0.50;;;0.32;;
39434;SDS011;66825;51.880;-0.518;2023-07-20T00:56:17;0.57;;;0.30;;
39434;SDS011;66825;51.880;-0.518;2023-07-20T00:58:43;0.30;;;0.30;;
39434;SDS011;66825;51.880;-0.518;2023-07-20T01:01:09;0.32;;;0.28;;
39434;SDS011;66825;51.880;-0.518;2023-07-20T01:03:34;0.45;;;0.30;;
39434;SDS011;66825;51.880;-0.518;2023-07-20T01:09:12;0.30;;;0.30;;
39434;SDS011;66825;51.880;-0.518;2023-07-20T01:14:11;0.38;;;0.30;;
39434;SDS011;66825;51.880;-0.518;2023-07-20T01:16:37;0.35;;;0.30;;
39434;SDS011;66825;51.880;-0.518;2023-07-20T01:19:02;0.43;;;0.32;;
39434;SDS011;66825;51.880;-0.518;2023-07-20T01:21:32;0.40;;;0.30;;
39434;SDS011;66825;51.880;-0.518;2023-07-20T01:24:11;0.30;;;0.20;;
39434;SDS011;66825;51.880;-0.518;2023-07-20T01:31:55;0.52;;;0.30;;
39434;SDS011;66825;51.880;-0.518;2023-07-20T01:34:22;0.38;;;0.35;;
39434;SDS011;66825;51.880;-0.518;2023-07-20T01:36:50;0.45;;;0.30;;
39434;SDS011;66825;51.880;-0.518;2023-07-20T01:39:19;0.30;;;0.30;;
39434;SDS011;66825;51.880;-0.518;2023-07-20T01:41:46;0.47;;;0.30;;
39434;SDS011;66825;51.880;-0.518;2023-07-20T01:44:12;0.43;;;0.38;;
39434;SDS011;66825;51.880;-0.518;2023-07-20T01:46:38;0.30;;;0.30;;
39434;SDS011;66825;51.880;-0.518;2023-07-20T01:49:03;0.50;;;0.30;;
39434;SDS011;66825;51.880;-0.518;2023-07-20T01:51:29;0.50;;;0.30;;
39434;SDS011;66825;51.880;-0.518;2023-07-20T01:53:54;0.40;;;0.30;;
39434;SDS011;66825;51.880;-0.518;2023-07-20T01:56:20;0.22;;;0.20;;
39434;SDS011;66825;51.880;-0.518;2023-07-20T01:58:45;0.43;;;0.30;;
39434;SDS011;66825;51.880;-0.518;2023-07-20T02:01:11;0.40;;;0.30;;
39434;SDS011;66825;51.880;-0.518;2023-07-20T02:03:37;0.50;;;0.30;;
39434;SDS011;66825;51.880;-0.518;2023-07-20T02:06:02;0.20;;;0.20;;
39434;SDS011;66825;51.880;-0.518;2023-07-20T02:08:28;0.30;;;0.28;;
39434;SDS011;66825;51.880;-0.518;2023-07-20T02:10:53;0.65;;;0.30;;
39434;SDS011;66825;51.880;-0.518;2023-07-20T02:13:19;0.65;;;0.40;;
39434;SDS011;66825;51.880;-0.518;2023-07-20T02:15:44;0.40;;;0.30;;
39434;SDS011;66825;51.880;-0.518;2023-07-20T02:18:12;0.30;;;0.30;;
39434;SDS011;66825;51.880;-0.518;2023-07-20T02:20:37;0.50;;;0.40;;
39434;SDS011;66825;51.880;-0.518;2023-07-20T02:23:03;0.45;;;0.30;;
39434;SDS011;66825;51.880;-0.518;2023-07-20T02:25:28;0.32;;;0.28;;
39434;SDS011;66825;51.880;-0.518;2023-07-20T02:27:55;0.40;;;0.40;;
39434;SDS011;66825;51.880;-0.518;2023-07-20T02:30:21;0.50;;;0.30;;
39434;SDS011;66825;51.880;-0.518;2023-07-20T02:32:46;0.30;;;0.30;;
39434;SDS011;66825;51.880;-0.518;2023-07-20T02:35:14;0.43;;;0.40;;
39434;SDS011;66825;51.880;-0.518;2023-07-20T02:37:40;0.40;;;0.30;;
39434;SDS011;66825;51.880;-0.518;2023-07-20T02:40:05;0.30;;;0.30;;
39434;SDS011;66825;51.880;-0.518;2023-07-20T02:42:32;0.30;;;0.30;;
39434;SDS011;66825;51.880;-0.518;2023-07-20T02:44:58;0.50;;;0.35;;
39434;SDS011;66825;51.880;-0.518;2023-07-20T02:47:23;0.40;;;0.40;;
39434;SDS011;66825;51.880;-0.518;2023-07-20T02:49:49;0.50;;;0.28;;
39434;SDS011;66825;51.880;-0.518;2023-07-20T02:52:14;0.63;;;0.40;;
39434;SDS011;66825;51.880;-0.518;2023-07-20T02:54:40;0.35;;;0.30;;
39434;SDS011;66825;51.880;-0.518;2023-07-20T02:57:05;0.30;;;0.30;;
39434;SDS011;66825;51.880;-0.518;2023-07-20T02:59:31;0.40;;;0.30;;
39434;SDS011;66825;51.880;-0.518;2023-07-20T03:01:56;0.85;;;0.30;;
39434;SDS011;66825;51.880;-0.518;2023-07-20T03:04:22;0.40;;;0.20;;
39434;SDS011;66825;51.880;-0.518;2023-07-20T03:06:50;0.40;;;0.30;;
39434;SDS011;66825;51.880;-0.518;2023-07-20T03:09:16;0.40;;;0.30;;
39434;SDS011;66825;51.880;-0.518;2023-07-20T03:11:41;0.32;;;0.30;;
39434;SDS011;66825;51.880;-0.518;2023-07-20T03:14:07;0.30;;;0.30;;
39434;SDS011;66825;51.880;-0.518;2023-07-20T03:16:33;0.55;;;0.25;;
39434;SDS011;66825;51.880;-0.518;2023-07-20T03:18:59;0.30;;;0.30;;
39434;SDS011;66825;51.880;-0.518;2023-07-20T03:21:25;0.40;;;0.28;;
39434;SDS011;66825;51.880;-0.518;2023-07-20T03:23:51;0.30;;;0.30;;
39434;SDS011;66825;51.880;-0.518;2023-07-20T03:26:16;0.43;;;0.35;;
39434;SDS011;66825;51.880;-0.518;2023-07-20T03:28:42;0.30;;;0.30;;
39434;SDS011;66825;51.880;-0.518;2023-07-20T03:31:07;0.30;;;0.20;;
39434;SDS011;66825;51.880;-0.518;2023-07-20T03:33:33;0.30;;;0.20;;
39434;SDS011;66825;51.880;-0.518;2023-07-20T03:35:59;0.65;;;0.35;;
39434;SDS011;66825;51.880;-0.518;2023-07-20T03:38:25;0.50;;;0.30;;
39434;SDS011;66825;51.880;-0.518;2023-07-20T03:40:53;0.70;;;0.30;;
39434;SDS011;66825;51.880;-0.518;2023-07-20T03:43:19;0.45;;;0.30;;
39434;SDS011;66825;51.880;-0.518;2023-07-20T03:45:46;0.77;;;0.30;;
39434;SDS011;66825;51.880;-0.518;2023-07-20T03:48:13;0.80;;;0.35;;
39434;SDS011;66825;51.880;-0.518;2023-07-20T03:50:42;0.43;;;0.30;;
39434;SDS011;66825;51.880;-0.518;2023-07-20T03:53:08;0.50;;;0.40;;
39434;SDS011;66825;51.880;-0.518;2023-07-20T03:55:34;0.40;;;0.30;;
39434;SDS011;66825;51.880;-0.518;2023-07-20T03:57:59;0.30;;;0.30;;
39434;SDS011;66825;51.880;-0.518;2023-07-20T04:00:25;0.55;;;0.35;;
39434;SDS011;66825;51.880;-0.518;2023-07-20T04:02:50;0.50;;;0.40;;
39434;SDS011;66825;51.880;-0.518;2023-07-20T04:05:16;0.65;;;0.40;;
39434;SDS011;66825;51.880;-0.518;2023-07-20T04:07:41;0.30;;;0.30;;
39434;SDS011;66825;51.880;-0.518;2023-07-20T04:10:07;0.38;;;0.30;;
39434;SDS011;66825;51.880;-0.518;2023-07-20T04:12:33;0.30;;;0.30;;
39434;SDS011;66825;51.880;-0.518;2023-07-20T04:14:58;0.45;;;0.30;;
39434;SDS011;66825;51.880;-0.518;2023-07-20T04:17:24;0.35;;;0.35;;
39434;SDS011;66825;51.880;-0.518;2023-07-20T04:19:49;0.50;;;0.38;;
39434;SDS011;66825;51.880;-0.518;2023-07-20T04:22:15;0.40;;;0.30;;
39434;SDS011;66825;51.880;-0.518;2023-07-20T04:24:41;0.40;;;0.40;;
39434;SDS011;66825;51.880;-0.518;2023-07-20T04:27:07;0.45;;;0.32;;
39434;SDS011;66825;51.880;-0.518;2023-07-20T04:29:33;0.47;;;0.32;;
39434;SDS011;66825;51.880;-0.518;2023-07-20T04:32:00;0.52;;;0.30;;
39434;SDS011;66825;51.880;-0.518;2023-07-20T04:34:25;0.45;;;0.30;;
39434;SDS011;66825;51.880;-0.518;2023-07-20T04:36:51;1.00;;;0.40;;
39434;SDS011;66825;51.880;-0.518;2023-07-20T04:39:16;0.40;;;0.30;;
39434;SDS011;66825;51.880;-0.518;2023-07-20T04:41:42;0.40;;;0.35;;
39434;SDS011;66825;51.880;-0.518;2023-07-20T04:44:07;0.30;;;0.30;;
39434;SDS011;66825;51.880;-0.518;2023-07-20T04:46:33;0.35;;;0.30;;
39434;SDS011;66825;51.880;-0.518;2023-07-20T04:48:58;0.40;;;0.20;;
39434;SDS011;66825;51.880;-0.518;2023-07-20T04:51:24;0.55;;;0.30;;
39434;SDS011;66825;51.880;-0.518;2023-07-20T04:53:49;0.63;;;0.30;;
39434;SDS011;66825;51.880;-0.518;2023-07-20T04:56:15;0.32;;;0.30;;
39434;SDS011;66825;51.880;-0.518;2023-07-20T04:58:40;0.40;;;0.40;;
39434;SDS011;66825;51.880;-0.518;2023-07-20T05:01:06;0.50;;;0.40;;
39434;SDS011;66825;51.880;-0.518;2023-07-20T05:03:31;0.32;;;0.30;;
39434;SDS011;66825;51.880;-0.518;2023-07-20T05:05:57;0.50;;;0.32;;
39434;SDS011;66825;51.880;-0.518;2023-07-20T05:08:22;0.30;;;0.22;;
39434;SDS011;66825;51.880;-0.518;2023-07-20T05:10:48;0.52;;;0.32;;
39434;SDS011;66825;51.880;-0.518;2023-07-20T05:13:14;0.40;;;0.30;;
39434;SDS011;66825;51.880;-0.518;2023-07-20T05:15:39;0.47;;;0.47;;
39434;SDS011;66825;51.880;-0.518;2023-07-20T05:18:05;0.30;;;0.30;;
39434;SDS011;66825;51.880;-0.518;2023-07-20T05:20:31;0.35;;;0.30;;
39434;SDS011;66825;51.880;-0.518;2023-07-20T05:22:58;0.32;;;0.30;;
39434;SDS011;66825;51.880;-0.518;2023-07-20T05:25:24;0.60;;;0.40;;
39434;SDS011;66825;51.880;-0.518;2023-07-20T05:27:49;0.30;;;0.30;;
39434;SDS011;66825;51.880;-0.518;2023-07-20T05:30:15;0.70;;;0.47;;
39434;SDS011;66825;51.880;-0.518;2023-07-20T05:32:41;0.40;;;0.30;;
39434;SDS011;66825;51.880;-0.518;2023-07-20T05:35:06;0.60;;;0.50;;
39434;SDS011;66825;51.880;-0.518;2023-07-20T05:37:33;0.50;;;0.30;;
39434;SDS011;66825;51.880;-0.518;2023-07-20T05:39:59;0.30;;;0.30;;
39434;SDS011;66825;51.880;-0.518;2023-07-20T05:42:24;0.50;;;0.40;;
39434;SDS011;66825;51.880;-0.518;2023-07-20T05:44:50;0.50;;;0.40;;
39434;SDS011;66825;51.880;-0.518;2023-07-20T05:47:17;0.30;;;0.30;;
39434;SDS011;66825;51.880;-0.518;2023-07-20T05:49:43;0.45;;;0.30;;
39434;SDS011;66825;51.880;-0.518;2023-07-20T05:52:08;0.40;;;0.30;;
39434;SDS011;66825;51.880;-0.518;2023-07-20T05:54:34;0.38;;;0.30;;
39434;SDS011;66825;51.880;-0.518;2023-07-20T05:56:59;0.82;;;0.40;;
39434;SDS011;66825;51.880;-0.518;2023-07-20T05:59:25;0.30;;;0.30;;
39434;SDS011;66825;51.880;-0.518;2023-07-20T06:01:54;0.50;;;0.32;;
39434;SDS011;66825;51.880;-0.518;2023-07-20T06:04:20;0.30;;;0.30;;
39434;SDS011;66825;51.880;-0.518;2023-07-20T06:06:45;0.50;;;0.30;;
39434;SDS011;66825;51.880;-0.518;2023-07-20T06:09:11;0.20;;;0.20;;
39434;SDS011;66825;51.880;-0.518;2023-07-20T06:11:40;0.95;;;0.30;;
39434;SDS011;66825;51.880;-0.518;2023-07-20T06:14:05;0.88;;;0.50;;
39434;SDS011;66825;51.880;-0.518;2023-07-20T06:16:31;0.60;;;0.40;;
39434;SDS011;66825;51.880;-0.518;2023-07-20T06:18:56;0.50;;;0.40;;
39434;SDS011;66825;51.880;-0.518;2023-07-20T06:21:22;0.35;;;0.30;;
39434;SDS011;66825;51.880;-0.518;2023-07-20T06:23:48;0.70;;;0.30;;
39434;SDS011;66825;51.880;-0.518;2023-07-20T06:26:13;0.40;;;0.30;;
39434;SDS011;66825;51.880;-0.518;2023-07-20T06:28:38;0.40;;;0.40;;
39434;SDS011;66825;51.880;-0.518;2023-07-20T06:31:04;0.30;;;0.30;;
39434;SDS011;66825;51.880;-0.518;2023-07-20T06:33:29;0.50;;;0.40;;
39434;SDS011;66825;51.880;-0.518;2023-07-20T06:35:55;0.65;;;0.40;;
39434;SDS011;66825;51.880;-0.518;2023-07-20T06:38:22;0.40;;;0.38;;
39434;SDS011;66825;51.880;-0.518;2023-07-20T06:40:48;0.40;;;0.30;;
39434;SDS011;66825;51.880;-0.518;2023-07-20T06:43:17;0.75;;;0.40;;
39434;SDS011;66825;51.880;-0.518;2023-07-20T06:45:42;0.30;;;0.30;;
39434;SDS011;66825;51.880;-0.518;2023-07-20T06:48:08;0.57;;;0.40;;
39434;SDS011;66825;51.880;-0.518;2023-07-20T06:50:33;0.45;;;0.40;;
39434;SDS011;66825;51.880;-0.518;2023-07-20T06:52:59;0.50;;;0.40;;
39434;SDS011;66825;51.880;-0.518;2023-07-20T06:55:28;0.40;;;0.30;;
39434;SDS011;66825;51.880;-0.518;2023-07-20T06:57:53;0.40;;;0.30;;
39434;SDS011;66825;51.880;-0.518;2023-07-20T07:00:19;0.60;;;0.50;;
39434;SDS011;66825;51.880;-0.518;2023-07-20T07:02:45;0.45;;;0.38;;
39434;SDS011;66825;51.880;-0.518;2023-07-20T07:05:10;0.45;;;0.32;;
39434;SDS011;66825;51.880;-0.518;2023-07-20T07:07:35;0.50;;;0.40;;
39434;SDS011;66825;51.880;-0.518;2023-07-20T07:10:01;0.50;;;0.40;;
39434;SDS011;66825;51.880;-0.518;2023-07-20T07:12:29;0.30;;;0.30;;
39434;SDS011;66825;51.880;-0.518;2023-07-20T07:14:55;0.60;;;0.50;;
39434;SDS011;66825;51.880;-0.518;2023-07-20T07:17:20;0.30;;;0.30;;
39434;SDS011;66825;51.880;-0.518;2023-07-20T07:19:46;0.73;;;0.52;;
39434;SDS011;66825;51.880;-0.518;2023-07-20T07:22:11;0.65;;;0.40;;
39434;SDS011;66825;51.880;-0.518;2023-07-20T07:24:37;0.55;;;0.43;;
39434;SDS011;66825;51.880;-0.518;2023-07-20T07:27:02;0.60;;;0.47;;
39434;SDS011;66825;51.880;-0.518;2023-07-20T07:29:29;0.63;;;0.50;;
39434;SDS011;66825;51.880;-0.518;2023-07-20T07:31:54;1.95;;;0.70;;
39434;SDS011;66825;51.880;-0.518;2023-07-20T07:34:20;0.73;;;0.60;;
39434;SDS011;66825;51.880;-0.518;2023-07-20T07:36:46;1.63;;;1.10;;
39434;SDS011;66825;51.880;-0.518;2023-07-20T07:39:12;1.23;;;0.90;;
39434;SDS011;66825;51.880;-0.518;2023-07-20T07:41:37;2.53;;;1.20;;
39434;SDS011;66825;51.880;-0.518;2023-07-20T07:44:03;2.15;;;1.10;;
39434;SDS011;66825;51.880;-0.518;2023-07-20T07:46:28;2.08;;;1.08;;
39434;SDS011;66825;51.880;-0.518;2023-07-20T07:48:54;3.20;;;1.10;;
39434;SDS011;66825;51.880;-0.518;2023-07-20T07:51:19;1.65;;;1.05;;
39434;SDS011;66825;51.880;-0.518;2023-07-20T07:53:46;2.03;;;0.98;;
39434;SDS011;66825;51.880;-0.518;2023-07-20T07:56:11;1.48;;;0.88;;
39434;SDS011;66825;51.880;-0.518;2023-07-20T07:58:37;1.83;;;0.90;;
39434;SDS011;66825;51.880;-0.518;2023-07-20T08:01:03;2.30;;;0.98;;
39434;SDS011;66825;51.880;-0.518;2023-07-20T08:03:30;2.05;;;0.90;;
39434;SDS011;66825;51.880;-0.518;2023-07-20T08:05:55;1.50;;;0.98;;
39434;SDS011;66825;51.880;-0.518;2023-07-20T08:08:21;1.08;;;0.80;;
39434;SDS011;66825;51.880;-0.518;2023-07-20T08:10:48;2.35;;;1.00;;
39434;SDS011;66825;51.880;-0.518;2023-07-20T08:13:13;1.38;;;0.90;;
39434;SDS011;66825;51.880;-0.518;2023-07-20T08:15:39;1.98;;;1.02;;
39434;SDS011;66825;51.880;-0.518;2023-07-20T08:18:05;2.78;;;1.08;;
39434;SDS011;66825;51.880;-0.518;2023-07-20T08:20:31;1.45;;;0.93;;
39434;SDS011;66825;51.880;-0.518;2023-07-20T08:22:57;2.47;;;0.90;;
39434;SDS011;66825;51.880;-0.518;2023-07-20T08:25:24;1.95;;;1.10;;
39434;SDS011;66825;51.880;-0.518;2023-07-20T08:27:55;2.75;;;1.08;;
39434;SDS011;66825;51.880;-0.518;2023-07-20T08:30:21;1.67;;;1.00;;
39434;SDS011;66825;51.880;-0.518;2023-07-20T08:32:48;1.70;;;1.10;;
39434;SDS011;66825;51.880;-0.518;2023-07-20T08:35:13;3.30;;;0.98;;
39434;SDS011;66825;51.880;-0.518;2023-07-20T08:37:40;2.08;;;1.00;;
39434;SDS011;66825;51.880;-0.518;2023-07-20T08:40:06;2.83;;;1.00;;
39434;SDS011;66825;51.880;-0.518;2023-07-20T08:42:33;1.80;;;0.90;;
39434;SDS011;66825;51.880;-0.518;2023-07-20T08:44:59;1.60;;;1.00;;
39434;SDS011;66825;51.880;-0.518;2023-07-20T08:47:25;6.03;;;1.90;;
39434;SDS011;66825;51.880;-0.518;2023-07-20T08:49:51;2.35;;;1.05;;
39434;SDS011;66825;51.880;-0.518;2023-07-20T08:52:19;15.90;;;3.47;;
39434;SDS011;66825;51.880;-0.518;2023-07-20T08:54:45;3.72;;;0.90;;
39434;SDS011;66825;51.880;-0.518;2023-07-20T08:57:10;3.50;;;1.00;;
39434;SDS011;66825;51.880;-0.518;2023-07-20T08:59:39;3.75;;;1.20;;
39434;SDS011;66825;51.880;-0.518;2023-07-20T09:02:05;4.05;;;1.08;;
39434;SDS011;66825;51.880;-0.518;2023-07-20T09:04:33;4.05;;;1.10;;
39434;SDS011;66825;51.880;-0.518;2023-07-20T09:06:59;1.70;;;0.80;;
39434;SDS011;66825;51.880;-0.518;2023-07-20T09:09:24;1.65;;;0.70;;
39434;SDS011;66825;51.880;-0.518;2023-07-20T09:11:50;2.33;;;0.90;;
39434;SDS011;66825;51.880;-0.518;2023-07-20T09:14:15;1.10;;;0.80;;
39434;SDS011;66825;51.880;-0.518;2023-07-20T09:16:47;1.73;;;0.80;;
39434;SDS011;66825;51.880;-0.518;2023-07-20T09:19:17;1.85;;;0.80;;
39434;SDS011;66825;51.880;-0.518;2023-07-20T09:21:46;2.90;;;0.77;;
39434;SDS011;66825;51.880;-0.518;2023-07-20T09:24:16;2.58;;;0.68;;
39434;SDS011;66825;51.880;-0.518;2023-07-20T09:26:45;2.65;;;0.80;;
39434;SDS011;66825;51.880;-0.518;2023-07-20T09:29:14;1.25;;;0.60;;
39434;SDS011;66825;51.880;-0.518;2023-07-20T09:32:00;1.42;;;0.70;;
39434;SDS011;66825;51.880;-0.518;2023-07-20T09:34:30;0.73;;;0.55;;
39434;SDS011;66825;51.880;-0.518;2023-07-20T09:36:59;0.90;;;0.70;;
39434;SDS011;66825;51.880;-0.518;2023-07-20T09:39:28;0.93;;;0.57;;
39434;SDS011;66825;51.880;-0.518;2023-07-20T09:41:54;1.90;;;0.70;;
39434;SDS011;66825;51.880;-0.518;2023-07-20T09:46:52;1.92;;;0.75;;
39434;SDS011;66825;51.880;-0.518;2023-07-20T09:49:18;3.88;;;0.80;;
39434;SDS011;66825;51.880;-0.518;2023-07-20T09:51:44;2.15;;;0.90;;
39434;SDS011;66825;51.880;-0.518;2023-07-20T09:54:10;5.55;;;1.50;;
39434;SDS011;66825;51.880;-0.518;2023-07-20T09:56:38;2.58;;;1.10;;
39434;SDS011;66825;51.880;-0.518;2023-07-20T09:59:05;3.90;;;1.10;;
39434;SDS011;66825;51.880;-0.518;2023-07-20T10:01:31;4.43;;;1.30;;
39434;SDS011;66825;51.880;-0.518;2023-07-20T10:03:58;1.92;;;0.90;;
39434;SDS011;66825;51.880;-0.518;2023-07-20T10:06:26;1.77;;;0.90;;
39434;SDS011;66825;51.880;-0.518;2023-07-20T10:08:55;2.70;;;1.00;;
39434;SDS011;66825;51.880;-0.518;2023-07-20T10:11:25;2.35;;;0.90;;
39434;SDS011;66825;51.880;-0.518;2023-07-20T10:13:56;2.92;;;0.90;;
39434;SDS011;66825;51.880;-0.518;2023-07-20T10:21:37;1.40;;;0.70;;
39434;SDS011;66825;51.880;-0.518;2023-07-20T10:24:07;2.35;;;0.77;;
39434;SDS011;66825;51.880;-0.518;2023-07-20T10:26:33;1.65;;;0.80;;
39434;SDS011;66825;51.880;-0.518;2023-07-20T10:29:01;1.63;;;0.80;;
39434;SDS011;66825;51.880;-0.518;2023-07-20T10:31:28;0.95;;;0.60;;
39434;SDS011;66825;51.880;-0.518;2023-07-20T10:33:54;1.63;;;0.77;;
39434;SDS011;66825;51.880;-0.518;2023-07-20T10:36:25;1.63;;;1.00;;
39434;SDS011;66825;51.880;-0.518;2023-07-20T10:38:55;2.38;;;0.80;;
39434;SDS011;66825;51.880;-0.518;2023-07-20T10:41:34;1.60;;;0.88;;
39434;SDS011;66825;51.880;-0.518;2023-07-20T10:44:04;3.80;;;0.90;;
39434;SDS011;66825;51.880;-0.518;2023-07-20T10:46:41;2.05;;;0.90;;
39434;SDS011;66825;51.880;-0.518;2023-07-20T10:49:09;1.00;;;0.73;;
39434;SDS011;66825;51.880;-0.518;2023-07-20T10:54:07;1.83;;;0.90;;
39434;SDS011;66825;51.880;-0.518;2023-07-20T10:56:33;1.55;;;0.80;;
39434;SDS011;66825;51.880;-0.518;2023-07-20T10:58:59;1.55;;;0.70;;
39434;SDS011;66825;51.880;-0.518;2023-07-20T11:01:29;2.15;;;0.90;;
39434;SDS011;66825;51.880;-0.518;2023-07-20T11:03:59;2.83;;;1.13;;
39434;SDS011;66825;51.880;-0.518;2023-07-20T11:11:51;2.92;;;0.90;;
39434;SDS011;66825;51.880;-0.518;2023-07-20T11:14:35;2.58;;;0.93;;
39434;SDS011;66825;51.880;-0.518;2023-07-20T11:17:15;2.08;;;0.93;;
39434;SDS011;66825;51.880;-0.518;2023-07-20T11:19:47;2.28;;;0.85;;
39434;SDS011;66825;51.880;-0.518;2023-07-20T11:22:13;1.30;;;0.90;;
39434;SDS011;66825;51.880;-0.518;2023-07-20T11:24:42;2.38;;;0.68;;
39434;SDS011;66825;51.880;-0.518;2023-07-20T11:27:08;3.05;;;0.70;;
39434;SDS011;66825;51.880;-0.518;2023-07-20T11:29:34;1.95;;;0.90;;
39434;SDS011;66825;51.880;-0.518;2023-07-20T11:32:01;1.60;;;0.80;;
39434;SDS011;66825;51.880;-0.518;2023-07-20T11:34:30;2.05;;;1.00;;
39434;SDS011;66825;51.880;-0.518;2023-07-20T11:36:57;2.38;;;1.00;;
39434;SDS011;66825;51.880;-0.518;2023-07-20T11:39:23;1.70;;;0.90;;
39434;SDS011;66825;51.880;-0.518;2023-07-20T11:41:57;2.05;;;0.85;;
39434;SDS011;66825;51.880;-0.518;2023-07-20T11:44:23;3.13;;;1.02;;
39434;SDS011;66825;51.880;-0.518;2023-07-20T11:47:09;6.63;;;1.33;;
39434;SDS011;66825;51.880;-0.518;2023-07-20T11:52:06;3.05;;;0.80;;
39434;SDS011;66825;51.880;-0.518;2023-07-20T11:54:33;2.13;;;0.80;;
39434;SDS011;66825;51.880;-0.518;2023-07-20T11:57:00;2.00;;;0.90;;
39434;SDS011;66825;51.880;-0.518;2023-07-20T11:59:30;3.35;;;0.88;;
39434;SDS011;66825;51.880;-0.518;2023-07-20T12:01:56;1.75;;;0.90;;
39434;SDS011;66825;51.880;-0.518;2023-07-20T12:04:22;2.08;;;1.15;;
39434;SDS011;66825;51.880;-0.518;2023-07-20T12:06:48;2.22;;;0.90;;
39434;SDS011;66825;51.880;-0.518;2023-07-20T12:09:14;2.42;;;1.10;;
39434;SDS011;66825;51.880;-0.518;2023-07-20T12:11:42;4.20;;;0.90;;
39434;SDS011;66825;51.880;-0.518;2023-07-20T12:14:10;8.23;;;1.85;;
39434;SDS011;66825;51.880;-0.518;2023-07-20T12:16:36;9.10;;;1.88;;
39434;SDS011;66825;51.880;-0.518;2023-07-20T12:19:04;7.65;;;1.83;;
39434;SDS011;66825;51.880;-0.518;2023-07-20T12:21:31;4.07;;;1.20;;
39434;SDS011;66825;51.880;-0.518;2023-07-20T12:23:59;2.85;;;1.00;;
39434;SDS011;66825;51.880;-0.518;2023-07-20T12:26:25;2.47;;;1.00;;
39434;SDS011;66825;51.880;-0.518;2023-07-20T12:28:51;5.20;;;1.38;;
39434;SDS011;66825;51.880;-0.518;2023-07-20T12:31:18;8.05;;;1.42;;
39434;SDS011;66825;51.880;-0.518;2023-07-20T12:33:43;9.65;;;1.70;;
39434;SDS011;66825;51.880;-0.518;2023-07-20T12:36:09;7.53;;;1.67;;
39434;SDS011;66825;51.880;-0.518;2023-07-20T12:38:35;5.13;;;1.50;;
39434;SDS011;66825;51.880;-0.518;2023-07-20T12:41:01;9.55;;;1.88;;
39434;SDS011;66825;51.880;-0.518;2023-07-20T12:43:28;4.25;;;1.40;;
39434;SDS011;66825;51.880;-0.518;2023-07-20T12:45:54;4.97;;;1.25;;
39434;SDS011;66825;51.880;-0.518;2023-07-20T12:48:20;3.78;;;1.15;;
39434;SDS011;66825;51.880;-0.518;2023-07-20T12:50:46;3.35;;;1.23;;
39434;SDS011;66825;51.880;-0.518;2023-07-20T12:53:11;5.68;;;1.70;;
39434;SDS011;66825;51.880;-0.518;2023-07-20T12:55:37;4.25;;;1.20;;
39434;SDS011;66825;51.880;-0.518;2023-07-20T12:58:04;3.92;;;1.38;;
39434;SDS011;66825;51.880;-0.518;2023-07-20T13:00:30;2.92;;;1.10;;
39434;SDS011;66825;51.880;-0.518;2023-07-20T13:02:55;4.22;;;1.30;;
39434;SDS011;66825;51.880;-0.518;2023-07-20T13:05:21;5.43;;;1.42;;
39434;SDS011;66825;51.880;-0.518;2023-07-20T13:07:46;6.88;;;1.70;;
39434;SDS011;66825;51.880;-0.518;2023-07-20T13:10:12;6.18;;;1.70;;
39434;SDS011;66825;51.880;-0.518;2023-07-20T13:12:37;4.68;;;1.75;;
39434;SDS011;66825;51.880;-0.518;2023-07-20T13:15:04;4.13;;;1.48;;
39434;SDS011;66825;51.880;-0.518;2023-07-20T13:17:35;3.58;;;1.33;;
39434;SDS011;66825;51.880;-0.518;2023-07-20T13:20:01;3.97;;;1.33;;
39434;SDS011;66825;51.880;-0.518;2023-07-20T13:22:29;6.32;;;1.50;;
39434;SDS011;66825;51.880;-0.518;2023-07-20T13:24:55;3.45;;;1.02;;
39434;SDS011;66825;51.880;-0.518;2023-07-20T13:27:21;1.83;;;1.00;;
39434;SDS011;66825;51.880;-0.518;2023-07-20T13:29:47;3.10;;;0.98;;
39434;SDS011;66825;51.880;-0.518;2023-07-20T13:32:13;2.95;;;1.08;;
39434;SDS011;66825;51.880;-0.518;2023-07-20T13:34:40;2.13;;;0.80;;
39434;SDS011;66825;51.880;-0.518;2023-07-20T13:37:05;1.38;;;0.80;;
39434;SDS011;66825;51.880;-0.518;2023-07-20T13:39:31;1.70;;;0.70;;
39434;SDS011;66825;51.880;-0.518;2023-07-20T13:41:57;1.98;;;1.00;;
39434;SDS011;66825;51.880;-0.518;2023-07-20T13:44:22;2.50;;;0.90;;
39434;SDS011;66825;51.880;-0.518;2023-07-20T13:46:48;2.13;;;0.93;;
39434;SDS011;66825;51.880;-0.518;2023-07-20T13:49:14;1.55;;;0.90;;
39434;SDS011;66825;51.880;-0.518;2023-07-20T13:51:43;1.25;;;0.80;;
39434;SDS011;66825;51.880;-0.518;2023-07-20T13:54:08;3.25;;;0.80;;
39434;SDS011;66825;51.880;-0.518;2023-07-20T13:56:34;1.13;;;0.73;;
39434;SDS011;66825;51.880;-0.518;2023-07-20T13:59:00;1.23;;;0.80;;
39434;SDS011;66825;51.880;-0.518;2023-07-20T14:01:26;2.47;;;0.90;;
39434;SDS011;66825;51.880;-0.518;2023-07-20T14:03:53;1.58;;;0.70;;
39434;SDS011;66825;51.880;-0.518;2023-07-20T14:06:19;1.35;;;0.80;;
39434;SDS011;66825;51.880;-0.518;2023-07-20T14:08:45;2.13;;;0.90;;
39434;SDS011;66825;51.880;-0.518;2023-07-20T14:11:12;3.20;;;0.90;;
39434;SDS011;66825;51.880;-0.518;2023-07-20T14:13:38;2.45;;;0.90;;
39434;SDS011;66825;51.880;-0.518;2023-07-20T14:16:03;1.20;;;0.80;;
39434;SDS011;66825;51.880;-0.518;2023-07-20T14:18:29;1.65;;;0.90;;
39434;SDS011;66825;51.880;-0.518;2023-07-20T14:20:54;1.13;;;0.80;;
39434;SDS011;66825;51.880;-0.518;2023-07-20T14:23:20;2.60;;;0.75;;
39434;SDS011;66825;51.880;-0.518;2023-07-20T14:25:45;1.10;;;0.80;;
39434;SDS011;66825;51.880;-0.518;2023-07-20T14:28:11;1.98;;;0.70;;
39434;SDS011;66825;51.880;-0.518;2023-07-20T14:30:38;2.35;;;0.82;;
39434;SDS011;66825;51.880;-0.518;2023-07-20T14:33:03;1.38;;;0.70;;
39434;SDS011;66825;51.880;-0.518;2023-07-20T14:35:28;7.57;;;1.63;;
39434;SDS011;66825;51.880;-0.518;2023-07-20T14:37:54;1.52;;;0.80;;
39434;SDS011;66825;51.880;-0.518;2023-07-20T14:40:19;1.10;;;0.73;;
39434;SDS011;66825;51.880;-0.518;2023-07-20T14:42:45;1.23;;;0.68;;
39434;SDS011;66825;51.880;-0.518;2023-07-20T14:45:11;1.83;;;0.77;;
39434;SDS011;66825;51.880;-0.518;2023-07-20T14:47:36;0.90;;;0.80;;
39434;SDS011;66825;51.880;-0.518;2023-07-20T14:50:02;1.10;;;0.80;;
39434;SDS011;66825;51.880;-0.518;2023-07-20T14:52:28;1.58;;;0.70;;
39434;SDS011;66825;51.880;-0.518;2023-07-20T14:54:53;2.65;;;0.80;;
39434;SDS011;66825;51.880;-0.518;2023-07-20T14:57:19;0.88;;;0.80;;